首页
METAR-TAF:

METAR-TAF

机场 :

蒙哥馬利地方機場

蒙哥马利, 阿拉巴马州, 美国

纬度: 32-18-01N, 经度: 086-24-22W, 海拔: 67米

当前天气观测

该预报发布于46分钟前的05:53 UTC
静风
温度 23°C
湿度 94%
气压 1018 hPa
能見度: 14.5公里
天空无云

METAR: KMGM 270553Z AUTO 00000KT 9SM CLR 23/22 A3007 RMK AO2 SLP178 T02330222 10328 20233 403610206 50000

时间: 01:39 (06:39 UTC)

预报

该预报发布于1小时和13分钟前的05:26 UTC
预报有效从27日的 06点(UTC)到 28日的 06点(UTC)
风速节,风向
能見度: 10公里
天空无云
短暂存在
从 27日的 09点(UTC)到 27日的 12点(UTC)
能見度: 6.4公里
轻雾
从 27日的 1500点(UTC)
风速3节,风向西转西南
能見度: 10公里
散云层高于25000英尺
从 27日的 1800点(UTC)
风速6节,风向西南
能見度: 10公里
散云层高于6000英尺
从 28日的 0100点(UTC)
风速2节,风向南转西南
能見度: 10公里
天空无云

TAF: KMGM 270526Z 2706/2806 00000KT P6SM SKC TEMPO 2709/2712 4SM BR FM271500 24003KT P6SM SCT250 FM271800 22006KT P6SM SCT060 FM280100 20002KT P6SM SKC

超过4000个机场的气象观测和天气预报(METAR&TAF报告)。

可查询的气象台以黄色和红色小点在地图上表示。

将鼠标移到小点上方,可查看气象台名称。

然后点击查看天气观测和预报。

如需切换地图:点击带黑十字的绿色按钮放大地图;点击带横线的绿色按钮缩小地图;或者点击绿色箭头查看邻近地区的地图。


METAR-TAF: